sensor_id;sensor_type;location;lat;lon;timestamp;P1;durP1;ratioP1;P2;durP2;ratioP2
20449;SDS011;10384;51.940;8.432;2022-09-02T00:00:54;1.07;;;0.70;;
20449;SDS011;10384;51.940;8.432;2022-09-02T00:03:31;1.10;;;0.60;;
20449;SDS011;10384;51.940;8.432;2022-09-02T00:05:59;2.87;;;0.50;;
20449;SDS011;10384;51.940;8.432;2022-09-02T00:08:25;0.97;;;0.70;;
20449;SDS011;10384;51.940;8.432;2022-09-02T00:10:51;0.70;;;0.60;;
20449;SDS011;10384;51.940;8.432;2022-09-02T00:13:17;0.83;;;0.60;;
20449;SDS011;10384;51.940;8.432;2022-09-02T00:15:45;1.33;;;0.50;;
20449;SDS011;10384;51.940;8.432;2022-09-02T00:18:11;2.93;;;0.80;;
20449;SDS011;10384;51.940;8.432;2022-09-02T00:20:38;1.33;;;0.70;;
20449;SDS011;10384;51.940;8.432;2022-09-02T00:23:05;0.67;;;0.67;;
20449;SDS011;10384;51.940;8.432;2022-09-02T00:25:32;0.60;;;0.60;;
20449;SDS011;10384;51.940;8.432;2022-09-02T00:27:58;0.60;;;0.60;;
20449;SDS011;10384;51.940;8.432;2022-09-02T00:30:24;0.90;;;0.70;;
20449;SDS011;10384;51.940;8.432;2022-09-02T00:32:50;1.13;;;0.50;;
20449;SDS011;10384;51.940;8.432;2022-09-02T00:35:16;1.53;;;0.80;;
20449;SDS011;10384;51.940;8.432;2022-09-02T00:37:42;3.53;;;0.70;;
20449;SDS011;10384;51.940;8.432;2022-09-02T00:40:08;0.93;;;0.60;;
20449;SDS011;10384;51.940;8.432;2022-09-02T00:42:35;0.77;;;0.70;;
20449;SDS011;10384;51.940;8.432;2022-09-02T00:45:02;2.30;;;0.60;;
20449;SDS011;10384;51.940;8.432;2022-09-02T00:47:28;1.00;;;0.53;;
20449;SDS011;10384;51.940;8.432;2022-09-02T00:49:55;0.90;;;0.60;;
20449;SDS011;10384;51.940;8.432;2022-09-02T00:52:26;1.03;;;0.63;;
20449;SDS011;10384;51.940;8.432;2022-09-02T00:55:02;1.23;;;0.60;;
20449;SDS011;10384;51.940;8.432;2022-09-02T00:57:30;0.63;;;0.60;;
20449;SDS011;10384;51.940;8.432;2022-09-02T01:00:04;0.80;;;0.60;;
20449;SDS011;10384;51.940;8.432;2022-09-02T01:02:30;1.47;;;0.70;;
20449;SDS011;10384;51.940;8.432;2022-09-02T01:04:59;0.60;;;0.60;;
20449;SDS011;10384;51.940;8.432;2022-09-02T01:07:29;0.90;;;0.80;;
20449;SDS011;10384;51.940;8.432;2022-09-02T01:09:57;0.70;;;0.70;;
20449;SDS011;10384;51.940;8.432;2022-09-02T01:12:23;0.90;;;0.70;;
20449;SDS011;10384;51.940;8.432;2022-09-02T01:14:52;1.50;;;0.60;;
20449;SDS011;10384;51.940;8.432;2022-09-02T01:17:18;2.30;;;0.83;;
20449;SDS011;10384;51.940;8.432;2022-09-02T01:19:45;0.67;;;0.63;;
20449;SDS011;10384;51.940;8.432;2022-09-02T01:22:17;0.63;;;0.60;;
20449;SDS011;10384;51.940;8.432;2022-09-02T01:24:44;0.87;;;0.60;;
20449;SDS011;10384;51.940;8.432;2022-09-02T01:27:13;0.80;;;0.60;;
20449;SDS011;10384;51.940;8.432;2022-09-02T01:29:40;1.43;;;0.80;;
20449;SDS011;10384;51.940;8.432;2022-09-02T01:32:06;1.13;;;0.70;;
20449;SDS011;10384;51.940;8.432;2022-09-02T01:34:31;0.87;;;0.80;;
20449;SDS011;10384;51.940;8.432;2022-09-02T01:36:57;1.30;;;1.00;;
20449;SDS011;10384;51.940;8.432;2022-09-02T01:39:23;1.73;;;0.70;;
20449;SDS011;10384;51.940;8.432;2022-09-02T01:41:50;0.90;;;0.60;;
20449;SDS011;10384;51.940;8.432;2022-09-02T01:44:16;1.33;;;0.70;;
20449;SDS011;10384;51.940;8.432;2022-09-02T01:46:42;1.27;;;0.70;;
20449;SDS011;10384;51.940;8.432;2022-09-02T01:49:08;0.60;;;0.60;;
20449;SDS011;10384;51.940;8.432;2022-09-02T01:51:34;2.30;;;1.00;;
20449;SDS011;10384;51.940;8.432;2022-09-02T01:54:00;2.00;;;0.90;;
20449;SDS011;10384;51.940;8.432;2022-09-02T01:56:26;3.50;;;0.83;;
20449;SDS011;10384;51.940;8.432;2022-09-02T01:58:52;0.73;;;0.70;;
20449;SDS011;10384;51.940;8.432;2022-09-02T02:01:19;2.30;;;0.80;;
20449;SDS011;10384;51.940;8.432;2022-09-02T02:03:45;4.50;;;1.00;;
20449;SDS011;10384;51.940;8.432;2022-09-02T02:06:13;3.30;;;0.97;;
20449;SDS011;10384;51.940;8.432;2022-09-02T02:08:40;2.43;;;1.33;;
20449;SDS011;10384;51.940;8.432;2022-09-02T02:11:07;4.13;;;0.97;;
20449;SDS011;10384;51.940;8.432;2022-09-02T02:13:33;1.40;;;1.07;;
20449;SDS011;10384;51.940;8.432;2022-09-02T02:15:59;2.03;;;1.10;;
20449;SDS011;10384;51.940;8.432;2022-09-02T02:18:26;1.30;;;0.90;;
20449;SDS011;10384;51.940;8.432;2022-09-02T02:20:53;1.93;;;1.20;;
20449;SDS011;10384;51.940;8.432;2022-09-02T02:23:19;3.87;;;0.90;;
20449;SDS011;10384;51.940;8.432;2022-09-02T02:25:46;1.23;;;0.90;;
20449;SDS011;10384;51.940;8.432;2022-09-02T02:28:12;3.43;;;0.80;;
20449;SDS011;10384;51.940;8.432;2022-09-02T02:30:38;2.47;;;1.10;;
20449;SDS011;10384;51.940;8.432;2022-09-02T02:33:04;5.73;;;1.00;;
20449;SDS011;10384;51.940;8.432;2022-09-02T02:35:30;1.37;;;0.83;;
20449;SDS011;10384;51.940;8.432;2022-09-02T02:37:56;1.73;;;0.80;;
20449;SDS011;10384;51.940;8.432;2022-09-02T02:40:23;0.83;;;0.80;;
20449;SDS011;10384;51.940;8.432;2022-09-02T02:42:50;2.27;;;1.23;;
20449;SDS011;10384;51.940;8.432;2022-09-02T02:45:20;1.60;;;1.23;;
20449;SDS011;10384;51.940;8.432;2022-09-02T02:47:47;1.27;;;0.80;;
20449;SDS011;10384;51.940;8.432;2022-09-02T02:50:15;2.63;;;0.90;;
20449;SDS011;10384;51.940;8.432;2022-09-02T02:52:42;4.93;;;1.27;;
20449;SDS011;10384;51.940;8.432;2022-09-02T02:55:08;6.00;;;1.00;;
20449;SDS011;10384;51.940;8.432;2022-09-02T02:57:35;4.73;;;1.17;;
20449;SDS011;10384;51.940;8.432;2022-09-02T03:00:13;3.70;;;0.90;;
20449;SDS011;10384;51.940;8.432;2022-09-02T03:02:40;2.57;;;1.20;;
20449;SDS011;10384;51.940;8.432;2022-09-02T03:05:07;1.70;;;0.90;;
20449;SDS011;10384;51.940;8.432;2022-09-02T03:07:33;4.03;;;1.00;;
20449;SDS011;10384;51.940;8.432;2022-09-02T03:09:59;2.20;;;0.80;;
20449;SDS011;10384;51.940;8.432;2022-09-02T03:12:27;5.27;;;1.13;;
20449;SDS011;10384;51.940;8.432;2022-09-02T03:14:53;0.93;;;0.80;;
20449;SDS011;10384;51.940;8.432;2022-09-02T03:17:19;2.00;;;1.10;;
20449;SDS011;10384;51.940;8.432;2022-09-02T03:19:45;1.37;;;0.80;;
20449;SDS011;10384;51.940;8.432;2022-09-02T03:22:11;0.90;;;0.90;;
20449;SDS011;10384;51.940;8.432;2022-09-02T03:24:38;2.80;;;0.90;;
20449;SDS011;10384;51.940;8.432;2022-09-02T03:27:04;2.83;;;1.00;;
20449;SDS011;10384;51.940;8.432;2022-09-02T03:29:30;2.07;;;1.10;;
20449;SDS011;10384;51.940;8.432;2022-09-02T03:31:56;3.10;;;1.10;;
20449;SDS011;10384;51.940;8.432;2022-09-02T03:34:21;3.60;;;1.10;;
20449;SDS011;10384;51.940;8.432;2022-09-02T03:36:47;2.17;;;1.20;;
20449;SDS011;10384;51.940;8.432;2022-09-02T03:39:14;5.03;;;2.17;;
20449;SDS011;10384;51.940;8.432;2022-09-02T03:41:40;1.83;;;1.13;;
20449;SDS011;10384;51.940;8.432;2022-09-02T03:44:06;2.17;;;1.10;;
20449;SDS011;10384;51.940;8.432;2022-09-02T03:46:32;1.53;;;1.00;;
20449;SDS011;10384;51.940;8.432;2022-09-02T03:48:59;1.57;;;1.07;;
20449;SDS011;10384;51.940;8.432;2022-09-02T03:51:25;2.10;;;0.97;;
20449;SDS011;10384;51.940;8.432;2022-09-02T03:53:51;3.00;;;1.10;;
20449;SDS011;10384;51.940;8.432;2022-09-02T03:56:18;3.03;;;0.97;;
20449;SDS011;10384;51.940;8.432;2022-09-02T03:58:45;3.57;;;1.10;;
20449;SDS011;10384;51.940;8.432;2022-09-02T04:01:15;0.93;;;0.80;;
20449;SDS011;10384;51.940;8.432;2022-09-02T04:03:42;3.00;;;1.00;;
20449;SDS011;10384;51.940;8.432;2022-09-02T04:06:09;1.53;;;1.17;;
20449;SDS011;10384;51.940;8.432;2022-09-02T04:08:36;3.13;;;1.37;;
20449;SDS011;10384;51.940;8.432;2022-09-02T04:11:08;7.10;;;1.67;;
20449;SDS011;10384;51.940;8.432;2022-09-02T04:13:35;5.17;;;1.10;;
20449;SDS011;10384;51.940;8.432;2022-09-02T04:16:08;3.10;;;1.30;;
20449;SDS011;10384;51.940;8.432;2022-09-02T04:18:35;3.33;;;1.30;;
20449;SDS011;10384;51.940;8.432;2022-09-02T04:21:01;2.70;;;1.10;;
20449;SDS011;10384;51.940;8.432;2022-09-02T04:23:27;3.97;;;1.40;;
20449;SDS011;10384;51.940;8.432;2022-09-02T04:25:53;6.87;;;1.60;;
20449;SDS011;10384;51.940;8.432;2022-09-02T04:28:19;17.83;;;3.00;;
20449;SDS011;10384;51.940;8.432;2022-09-02T04:30:46;56.60;;;7.37;;
20449;SDS011;10384;51.940;8.432;2022-09-02T04:33:12;31.17;;;4.40;;
20449;SDS011;10384;51.940;8.432;2022-09-02T04:35:39;16.97;;;3.10;;
20449;SDS011;10384;51.940;8.432;2022-09-02T04:38:05;9.90;;;1.93;;
20449;SDS011;10384;51.940;8.432;2022-09-02T04:40:31;5.03;;;1.70;;
20449;SDS011;10384;51.940;8.432;2022-09-02T04:42:57;5.40;;;1.53;;
20449;SDS011;10384;51.940;8.432;2022-09-02T04:45:24;2.63;;;1.17;;
20449;SDS011;10384;51.940;8.432;2022-09-02T04:47:52;3.03;;;1.37;;
20449;SDS011;10384;51.940;8.432;2022-09-02T04:50:18;1.80;;;1.30;;
20449;SDS011;10384;51.940;8.432;2022-09-02T04:52:44;2.30;;;1.20;;
20449;SDS011;10384;51.940;8.432;2022-09-02T04:55:10;2.70;;;1.30;;
20449;SDS011;10384;51.940;8.432;2022-09-02T04:57:36;2.30;;;1.20;;
20449;SDS011;10384;51.940;8.432;2022-09-02T05:00:05;6.37;;;1.10;;
20449;SDS011;10384;51.940;8.432;2022-09-02T05:02:32;2.30;;;1.40;;
20449;SDS011;10384;51.940;8.432;2022-09-02T05:04:58;11.33;;;2.30;;
20449;SDS011;10384;51.940;8.432;2022-09-02T05:07:24;12.33;;;2.27;;
20449;SDS011;10384;51.940;8.432;2022-09-02T05:09:54;7.53;;;1.90;;
20449;SDS011;10384;51.940;8.432;2022-09-02T05:12:20;6.60;;;1.50;;
20449;SDS011;10384;51.940;8.432;2022-09-02T05:14:46;8.97;;;2.23;;
20449;SDS011;10384;51.940;8.432;2022-09-02T05:17:13;16.13;;;2.30;;
20449;SDS011;10384;51.940;8.432;2022-09-02T05:19:39;11.53;;;2.00;;
20449;SDS011;10384;51.940;8.432;2022-09-02T05:22:05;6.60;;;1.57;;
20449;SDS011;10384;51.940;8.432;2022-09-02T05:24:31;5.23;;;1.30;;
20449;SDS011;10384;51.940;8.432;2022-09-02T05:26:57;6.50;;;1.60;;
20449;SDS011;10384;51.940;8.432;2022-09-02T05:29:23;9.33;;;1.77;;
20449;SDS011;10384;51.940;8.432;2022-09-02T05:31:50;6.97;;;2.00;;
20449;SDS011;10384;51.940;8.432;2022-09-02T05:34:16;1.70;;;1.13;;
20449;SDS011;10384;51.940;8.432;2022-09-02T05:36:42;5.73;;;1.40;;
20449;SDS011;10384;51.940;8.432;2022-09-02T05:39:08;4.43;;;1.33;;
20449;SDS011;10384;51.940;8.432;2022-09-02T05:41:34;5.07;;;2.00;;
20449;SDS011;10384;51.940;8.432;2022-09-02T05:44:01;4.10;;;1.40;;
20449;SDS011;10384;51.940;8.432;2022-09-02T05:46:27;9.17;;;2.00;;
20449;SDS011;10384;51.940;8.432;2022-09-02T05:48:53;9.23;;;1.63;;
20449;SDS011;10384;51.940;8.432;2022-09-02T05:51:42;3.67;;;1.53;;
20449;SDS011;10384;51.940;8.432;2022-09-02T05:54:10;6.77;;;1.50;;
20449;SDS011;10384;51.940;8.432;2022-09-02T05:56:37;6.47;;;1.80;;
20449;SDS011;10384;51.940;8.432;2022-09-02T05:59:03;5.50;;;2.47;;
20449;SDS011;10384;51.940;8.432;2022-09-02T06:01:31;5.90;;;1.70;;
20449;SDS011;10384;51.940;8.432;2022-09-02T06:03:58;3.97;;;1.60;;
20449;SDS011;10384;51.940;8.432;2022-09-02T06:06:26;2.63;;;1.33;;
20449;SDS011;10384;51.940;8.432;2022-09-02T06:08:52;2.60;;;1.40;;
20449;SDS011;10384;51.940;8.432;2022-09-02T06:11:18;3.33;;;1.53;;
20449;SDS011;10384;51.940;8.432;2022-09-02T06:13:44;3.83;;;1.40;;
20449;SDS011;10384;51.940;8.432;2022-09-02T06:16:14;1.93;;;1.50;;
20449;SDS011;10384;51.940;8.432;2022-09-02T06:18:41;2.00;;;1.10;;
20449;SDS011;10384;51.940;8.432;2022-09-02T06:21:08;6.17;;;1.70;;
20449;SDS011;10384;51.940;8.432;2022-09-02T06:23:34;5.63;;;1.80;;
20449;SDS011;10384;51.940;8.432;2022-09-02T06:26:03;2.00;;;1.20;;
20449;SDS011;10384;51.940;8.432;2022-09-02T06:28:29;4.37;;;1.33;;
20449;SDS011;10384;51.940;8.432;2022-09-02T06:30:56;4.60;;;1.70;;
20449;SDS011;10384;51.940;8.432;2022-09-02T06:33:22;4.53;;;1.53;;
20449;SDS011;10384;51.940;8.432;2022-09-02T06:35:48;4.37;;;1.23;;
20449;SDS011;10384;51.940;8.432;2022-09-02T06:38:14;7.33;;;1.30;;
20449;SDS011;10384;51.940;8.432;2022-09-02T06:40:47;3.80;;;1.17;;
20449;SDS011;10384;51.940;8.432;2022-09-02T06:43:13;3.07;;;1.20;;
20449;SDS011;10384;51.940;8.432;2022-09-02T06:45:40;4.57;;;1.60;;
20449;SDS011;10384;51.940;8.432;2022-09-02T06:48:07;2.57;;;1.27;;
20449;SDS011;10384;51.940;8.432;2022-09-02T06:50:36;2.77;;;1.40;;
20449;SDS011;10384;51.940;8.432;2022-09-02T06:53:02;1.30;;;1.20;;
20449;SDS011;10384;51.940;8.432;2022-09-02T06:55:30;2.27;;;1.50;;
20449;SDS011;10384;51.940;8.432;2022-09-02T06:57:56;3.50;;;1.53;;
20449;SDS011;10384;51.940;8.432;2022-09-02T07:00:22;2.73;;;1.40;;
20449;SDS011;10384;51.940;8.432;2022-09-02T07:02:49;1.60;;;1.23;;
20449;SDS011;10384;51.940;8.432;2022-09-02T07:05:34;2.90;;;1.20;;
20449;SDS011;10384;51.940;8.432;2022-09-02T07:08:00;2.43;;;1.30;;
20449;SDS011;10384;51.940;8.432;2022-09-02T07:10:26;3.10;;;1.40;;
20449;SDS011;10384;51.940;8.432;2022-09-02T07:12:53;1.73;;;1.27;;
20449;SDS011;10384;51.940;8.432;2022-09-02T07:15:18;1.20;;;1.10;;
20449;SDS011;10384;51.940;8.432;2022-09-02T07:17:45;1.40;;;1.30;;
20449;SDS011;10384;51.940;8.432;2022-09-02T07:20:12;3.03;;;1.17;;
20449;SDS011;10384;51.940;8.432;2022-09-02T07:22:38;1.67;;;1.40;;
20449;SDS011;10384;51.940;8.432;2022-09-02T07:25:04;1.40;;;1.30;;
20449;SDS011;10384;51.940;8.432;2022-09-02T07:27:30;3.17;;;1.50;;
20449;SDS011;10384;51.940;8.432;2022-09-02T07:29:56;1.87;;;1.33;;
20449;SDS011;10384;51.940;8.432;2022-09-02T07:32:23;2.00;;;1.27;;
20449;SDS011;10384;51.940;8.432;2022-09-02T07:34:49;2.50;;;1.20;;
20449;SDS011;10384;51.940;8.432;2022-09-02T07:37:15;3.90;;;1.40;;
20449;SDS011;10384;51.940;8.432;2022-09-02T07:39:41;3.47;;;1.30;;
20449;SDS011;10384;51.940;8.432;2022-09-02T07:42:08;1.20;;;1.10;;
20449;SDS011;10384;51.940;8.432;2022-09-02T07:44:34;1.60;;;1.20;;
20449;SDS011;10384;51.940;8.432;2022-09-02T07:47:00;2.73;;;1.33;;
20449;SDS011;10384;51.940;8.432;2022-09-02T07:49:26;1.57;;;1.10;;
20449;SDS011;10384;51.940;8.432;2022-09-02T07:51:52;1.70;;;1.20;;
20449;SDS011;10384;51.940;8.432;2022-09-02T07:54:19;2.20;;;1.20;;
20449;SDS011;10384;51.940;8.432;2022-09-02T07:56:45;1.73;;;1.10;;
20449;SDS011;10384;51.940;8.432;2022-09-02T07:59:12;1.10;;;0.87;;
20449;SDS011;10384;51.940;8.432;2022-09-02T08:01:38;1.43;;;1.17;;
20449;SDS011;10384;51.940;8.432;2022-09-02T08:04:07;2.03;;;1.13;;
20449;SDS011;10384;51.940;8.432;2022-09-02T08:06:33;1.40;;;1.20;;
20449;SDS011;10384;51.940;8.432;2022-09-02T08:09:00;2.47;;;1.40;;
20449;SDS011;10384;51.940;8.432;2022-09-02T08:11:25;2.27;;;1.17;;
20449;SDS011;10384;51.940;8.432;2022-09-02T08:13:52;1.37;;;1.20;;
20449;SDS011;10384;51.940;8.432;2022-09-02T08:16:18;2.13;;;1.00;;
20449;SDS011;10384;51.940;8.432;2022-09-02T08:18:44;1.47;;;1.20;;
20449;SDS011;10384;51.940;8.432;2022-09-02T08:21:12;6.10;;;1.17;;
20449;SDS011;10384;51.940;8.432;2022-09-02T08:23:38;1.20;;;0.90;;
20449;SDS011;10384;51.940;8.432;2022-09-02T08:26:04;1.23;;;0.90;;
20449;SDS011;10384;51.940;8.432;2022-09-02T08:28:31;2.47;;;1.03;;
20449;SDS011;10384;51.940;8.432;2022-09-02T08:30:57;1.00;;;0.90;;
20449;SDS011;10384;51.940;8.432;2022-09-02T08:33:23;1.10;;;1.00;;
20449;SDS011;10384;51.940;8.432;2022-09-02T08:35:49;1.53;;;1.13;;
20449;SDS011;10384;51.940;8.432;2022-09-02T08:38:16;4.03;;;1.13;;
20449;SDS011;10384;51.940;8.432;2022-09-02T08:40:42;3.23;;;1.20;;
20449;SDS011;10384;51.940;8.432;2022-09-02T08:43:16;1.90;;;1.17;;
20449;SDS011;10384;51.940;8.432;2022-09-02T08:45:45;1.70;;;1.10;;
20449;SDS011;10384;51.940;8.432;2022-09-02T08:48:18;5.70;;;1.20;;
20449;SDS011;10384;51.940;8.432;2022-09-02T08:50:46;1.13;;;0.90;;
20449;SDS011;10384;51.940;8.432;2022-09-02T08:55:43;1.27;;;0.90;;
20449;SDS011;10384;51.940;8.432;2022-09-02T08:58:10;1.60;;;1.20;;
20449;SDS011;10384;51.940;8.432;2022-09-02T09:00:38;4.30;;;1.20;;
20449;SDS011;10384;51.940;8.432;2022-09-02T09:05:52;3.10;;;1.60;;
20449;SDS011;10384;51.940;8.432;2022-09-02T09:08:25;2.70;;;1.20;;
20449;SDS011;10384;51.940;8.432;2022-09-02T09:11:03;2.67;;;1.00;;
20449;SDS011;10384;51.940;8.432;2022-09-02T09:18:53;1.87;;;1.10;;
20449;SDS011;10384;51.940;8.432;2022-09-02T09:21:23;1.30;;;1.07;;
20449;SDS011;10384;51.940;8.432;2022-09-02T09:23:49;2.33;;;1.30;;
20449;SDS011;10384;51.940;8.432;2022-09-02T09:26:18;1.30;;;1.00;;
20449;SDS011;10384;51.940;8.432;2022-09-02T09:28:47;4.60;;;1.03;;
20449;SDS011;10384;51.940;8.432;2022-09-02T09:31:14;2.70;;;1.10;;
20449;SDS011;10384;51.940;8.432;2022-09-02T09:33:55;1.10;;;1.00;;
20449;SDS011;10384;51.940;8.432;2022-09-02T09:41:41;1.23;;;1.10;;
20449;SDS011;10384;51.940;8.432;2022-09-02T09:44:07;1.27;;;1.10;;
20449;SDS011;10384;51.940;8.432;2022-09-02T09:46:33;3.03;;;1.30;;
20449;SDS011;10384;51.940;8.432;2022-09-02T09:48:59;2.97;;;1.13;;
20449;SDS011;10384;51.940;8.432;2022-09-02T09:51:25;2.13;;;1.00;;
20449;SDS011;10384;51.940;8.432;2022-09-02T09:53:51;1.43;;;0.93;;
20449;SDS011;10384;51.940;8.432;2022-09-02T09:56:24;2.23;;;1.10;;
20449;SDS011;10384;51.940;8.432;2022-09-02T09:58:51;4.30;;;1.00;;
20449;SDS011;10384;51.940;8.432;2022-09-02T10:03:47;1.57;;;1.10;;
20449;SDS011;10384;51.940;8.432;2022-09-02T10:06:21;1.27;;;1.10;;
20449;SDS011;10384;51.940;8.432;2022-09-02T10:09:01;1.87;;;1.20;;
20449;SDS011;10384;51.940;8.432;2022-09-02T10:11:35;1.37;;;1.20;;
20449;SDS011;10384;51.940;8.432;2022-09-02T10:14:02;2.40;;;1.13;;
20449;SDS011;10384;51.940;8.432;2022-09-02T10:19:18;2.77;;;0.80;;
20449;SDS011;10384;51.940;8.432;2022-09-02T10:27:10;2.13;;;1.10;;
20449;SDS011;10384;51.940;8.432;2022-09-02T10:30:02;1.50;;;1.07;;
20449;SDS011;10384;51.940;8.432;2022-09-02T10:32:40;2.33;;;1.03;;
20449;SDS011;10384;51.940;8.432;2022-09-02T10:35:20;2.43;;;1.10;;
20449;SDS011;10384;51.940;8.432;2022-09-02T10:38:05;1.67;;;1.03;;
20449;SDS011;10384;51.940;8.432;2022-09-02T10:40:42;1.40;;;1.00;;
20449;SDS011;10384;51.940;8.432;2022-09-02T10:43:14;1.53;;;1.30;;
20449;SDS011;10384;51.940;8.432;2022-09-02T10:45:46;1.67;;;1.20;;
20449;SDS011;10384;51.940;8.432;2022-09-02T10:48:19;1.73;;;1.07;;
20449;SDS011;10384;51.940;8.432;2022-09-02T10:50:50;1.73;;;1.03;;
20449;SDS011;10384;51.940;8.432;2022-09-02T10:53:23;1.20;;;1.10;;
20449;SDS011;10384;51.940;8.432;2022-09-02T10:55:58;2.00;;;1.20;;
20449;SDS011;10384;51.940;8.432;2022-09-02T11:01:30;1.27;;;1.17;;
20449;SDS011;10384;51.940;8.432;2022-09-02T11:04:07;1.10;;;1.00;;
20449;SDS011;10384;51.940;8.432;2022-09-02T11:06:36;1.30;;;1.20;;
20449;SDS011;10384;51.940;8.432;2022-09-02T11:10:07;2.50;;;1.10;;
20449;SDS011;10384;51.940;8.432;2022-09-02T11:12:03;1.70;;;1.00;;
20449;SDS011;10384;51.940;8.432;2022-09-02T11:14:32;1.40;;;1.30;;
20449;SDS011;10384;51.940;8.432;2022-09-02T11:17:13;1.70;;;1.10;;
20449;SDS011;10384;51.940;8.432;2022-09-02T11:22:10;1.97;;;1.30;;
20449;SDS011;10384;51.940;8.432;2022-09-02T11:24:42;2.47;;;1.17;;
20449;SDS011;10384;51.940;8.432;2022-09-02T11:27:11;3.17;;;1.70;;
20449;SDS011;10384;51.940;8.432;2022-09-02T11:32:36;2.13;;;1.50;;
20449;SDS011;10384;51.940;8.432;2022-09-02T11:35:04;1.40;;;1.10;;
20449;SDS011;10384;51.940;8.432;2022-09-02T11:37:43;1.43;;;1.20;;
20449;SDS011;10384;51.940;8.432;2022-09-02T11:40:17;1.30;;;1.20;;
20449;SDS011;10384;51.940;8.432;2022-09-02T11:42:48;1.47;;;1.10;;
20449;SDS011;10384;51.940;8.432;2022-09-02T11:48:11;1.23;;;1.13;;
20449;SDS011;10384;51.940;8.432;2022-09-02T11:50:49;2.70;;;1.20;;
20449;SDS011;10384;51.940;8.432;2022-09-02T11:53:24;1.63;;;1.30;;
20449;SDS011;10384;51.940;8.432;2022-09-02T11:55:52;1.57;;;1.17;;
20449;SDS011;10384;51.940;8.432;2022-09-02T12:03:30;1.20;;;1.10;;
20449;SDS011;10384;51.940;8.432;2022-09-02T12:10:59;1.40;;;1.10;;
20449;SDS011;10384;51.940;8.432;2022-09-02T12:13:42;2.83;;;1.40;;
20449;SDS011;10384;51.940;8.432;2022-09-02T12:21:18;1.70;;;1.27;;
20449;SDS011;10384;51.940;8.432;2022-09-02T12:26:23;1.83;;;1.10;;
20449;SDS011;10384;51.940;8.432;2022-09-02T12:28:50;4.07;;;1.37;;
20449;SDS011;10384;51.940;8.432;2022-09-02T12:34:47;1.67;;;1.20;;
20449;SDS011;10384;51.940;8.432;2022-09-02T12:44:49;1.90;;;1.60;;
20449;SDS011;10384;51.940;8.432;2022-09-02T12:50:21;1.60;;;1.20;;
20449;SDS011;10384;51.940;8.432;2022-09-02T12:52:50;2.80;;;1.30;;
20449;SDS011;10384;51.940;8.432;2022-09-02T12:57:44;2.53;;;1.23;;
20449;SDS011;10384;51.940;8.432;2022-09-02T13:00:14;1.60;;;1.40;;
20449;SDS011;10384;51.940;8.432;2022-09-02T13:05:44;4.50;;;1.53;;
20449;SDS011;10384;51.940;8.432;2022-09-02T13:08:29;1.67;;;1.50;;
20449;SDS011;10384;51.940;8.432;2022-09-02T13:14:08;1.67;;;1.30;;
20449;SDS011;10384;51.940;8.432;2022-09-02T13:22:03;1.90;;;1.23;;
20449;SDS011;10384;51.940;8.432;2022-09-02T13:24:36;1.60;;;1.00;;
20449;SDS011;10384;51.940;8.432;2022-09-02T13:27:32;1.60;;;1.23;;
20449;SDS011;10384;51.940;8.432;2022-09-02T13:30:00;1.93;;;1.13;;
20449;SDS011;10384;51.940;8.432;2022-09-02T13:32:30;1.57;;;1.27;;
20449;SDS011;10384;51.940;8.432;2022-09-02T13:35:01;2.90;;;1.30;;
20449;SDS011;10384;51.940;8.432;2022-09-02T13:38:10;4.00;;;1.27;;
20449;SDS011;10384;51.940;8.432;2022-09-02T13:40:19;3.00;;;1.20;;
20449;SDS011;10384;51.940;8.432;2022-09-02T13:42:47;1.17;;;1.00;;
20449;SDS011;10384;51.940;8.432;2022-09-02T13:45:17;1.20;;;1.10;;
20449;SDS011;10384;51.940;8.432;2022-09-02T13:47:44;3.37;;;1.17;;
20449;SDS011;10384;51.940;8.432;2022-09-02T13:50:11;2.10;;;1.40;;
20449;SDS011;10384;51.940;8.432;2022-09-02T13:52:39;1.50;;;1.40;;
20449;SDS011;10384;51.940;8.432;2022-09-02T13:55:06;2.97;;;1.27;;
20449;SDS011;10384;51.940;8.432;2022-09-02T13:57:33;5.93;;;1.17;;
20449;SDS011;10384;51.940;8.432;2022-09-02T14:00:00;2.23;;;1.27;;
20449;SDS011;10384;51.940;8.432;2022-09-02T14:02:28;1.40;;;1.30;;
20449;SDS011;10384;51.940;8.432;2022-09-02T14:05:02;2.37;;;1.20;;
20449;SDS011;10384;51.940;8.432;2022-09-02T14:07:50;1.97;;;1.20;;
20449;SDS011;10384;51.940;8.432;2022-09-02T14:10:16;1.30;;;1.20;;
20449;SDS011;10384;51.940;8.432;2022-09-02T14:12:46;2.30;;;1.50;;
20449;SDS011;10384;51.940;8.432;2022-09-02T14:15:13;3.33;;;1.70;;
20449;SDS011;10384;51.940;8.432;2022-09-02T14:17:40;1.53;;;1.43;;
20449;SDS011;10384;51.940;8.432;2022-09-02T14:22:41;1.73;;;1.40;;
20449;SDS011;10384;51.940;8.432;2022-09-02T14:25:08;1.53;;;1.30;;
20449;SDS011;10384;51.940;8.432;2022-09-02T14:27:36;1.67;;;1.30;;
20449;SDS011;10384;51.940;8.432;2022-09-02T14:30:03;3.00;;;1.30;;
20449;SDS011;10384;51.940;8.432;2022-09-02T14:32:33;1.20;;;1.10;;
20449;SDS011;10384;51.940;8.432;2022-09-02T14:37:46;2.70;;;1.40;;
20449;SDS011;10384;51.940;8.432;2022-09-02T14:40:12;2.37;;;1.30;;
20449;SDS011;10384;51.940;8.432;2022-09-02T14:42:46;1.60;;;1.40;;
20449;SDS011;10384;51.940;8.432;2022-09-02T14:45:12;1.83;;;1.50;;
20449;SDS011;10384;51.940;8.432;2022-09-02T14:47:39;2.00;;;1.60;;
20449;SDS011;10384;51.940;8.432;2022-09-02T14:50:10;1.20;;;1.10;;
20449;SDS011;10384;51.940;8.432;2022-09-02T14:52:48;1.27;;;1.13;;
20449;SDS011;10384;51.940;8.432;2022-09-02T14:58:00;1.90;;;1.20;;
20449;SDS011;10384;51.940;8.432;2022-09-02T15:00:26;2.60;;;1.20;;
20449;SDS011;10384;51.940;8.432;2022-09-02T15:02:54;1.40;;;1.30;;
20449;SDS011;10384;51.940;8.432;2022-09-02T15:05:21;2.30;;;1.10;;
20449;SDS011;10384;51.940;8.432;2022-09-02T15:07:48;1.77;;;1.40;;
20449;SDS011;10384;51.940;8.432;2022-09-02T15:10:14;1.50;;;1.40;;
20449;SDS011;10384;51.940;8.432;2022-09-02T15:12:51;1.87;;;1.10;;
20449;SDS011;10384;51.940;8.432;2022-09-02T15:15:17;1.60;;;1.33;;
20449;SDS011;10384;51.940;8.432;2022-09-02T15:17:43;3.27;;;1.40;;
20449;SDS011;10384;51.940;8.432;2022-09-02T15:20:09;1.57;;;1.30;;
20449;SDS011;10384;51.940;8.432;2022-09-02T15:22:35;1.30;;;1.20;;
20449;SDS011;10384;51.940;8.432;2022-09-02T15:25:02;1.87;;;1.40;;
20449;SDS011;10384;51.940;8.432;2022-09-02T15:27:31;1.73;;;1.40;;
20449;SDS011;10384;51.940;8.432;2022-09-02T15:29:58;2.87;;;1.30;;
20449;SDS011;10384;51.940;8.432;2022-09-02T15:32:25;1.90;;;1.40;;
20449;SDS011;10384;51.940;8.432;2022-09-02T15:34:51;2.03;;;1.27;;
20449;SDS011;10384;51.940;8.432;2022-09-02T15:37:17;2.67;;;1.30;;
20449;SDS011;10384;51.940;8.432;2022-09-02T15:39:43;1.30;;;1.00;;
20449;SDS011;10384;51.940;8.432;2022-09-02T15:42:09;1.53;;;1.20;;
20449;SDS011;10384;51.940;8.432;2022-09-02T15:44:35;1.60;;;1.10;;
20449;SDS011;10384;51.940;8.432;2022-09-02T15:47:01;1.43;;;1.33;;
20449;SDS011;10384;51.940;8.432;2022-09-02T15:49:27;1.63;;;1.40;;
20449;SDS011;10384;51.940;8.432;2022-09-02T15:51:54;1.10;;;1.00;;
20449;SDS011;10384;51.940;8.432;2022-09-02T15:54:20;1.00;;;1.00;;
20449;SDS011;10384;51.940;8.432;2022-09-02T15:56:47;1.20;;;1.10;;
20449;SDS011;10384;51.940;8.432;2022-09-02T15:59:16;1.37;;;1.20;;
20449;SDS011;10384;51.940;8.432;2022-09-02T16:01:46;2.70;;;1.17;;
20449;SDS011;10384;51.940;8.432;2022-09-02T16:04:12;2.13;;;1.40;;
20449;SDS011;10384;51.940;8.432;2022-09-02T16:06:43;2.03;;;1.23;;
20449;SDS011;10384;51.940;8.432;2022-09-02T16:09:11;4.30;;;1.20;;
20449;SDS011;10384;51.940;8.432;2022-09-02T16:11:37;2.60;;;1.10;;
20449;SDS011;10384;51.940;8.432;2022-09-02T16:14:03;1.80;;;1.23;;
20449;SDS011;10384;51.940;8.432;2022-09-02T16:16:30;1.90;;;1.30;;
20449;SDS011;10384;51.940;8.432;2022-09-02T16:18:56;1.87;;;1.13;;
20449;SDS011;10384;51.940;8.432;2022-09-02T16:21:22;2.03;;;1.40;;
20449;SDS011;10384;51.940;8.432;2022-09-02T16:23:48;2.27;;;1.20;;
20449;SDS011;10384;51.940;8.432;2022-09-02T16:26:16;2.93;;;1.40;;